Time;durP1;ratioP1;P1;durP2;ratioP2;P2;SDS_P1;SDS_P2;PMS_P1;PMS_P2;Temp;Humidity;BMP_temperature;BMP_pressure;BME280_temperature;BME280_humidity;BME280_pressure;Samples;Min_cycle;Max_cycle;Signal;HPM_P1;HPM_P2
2022/10/12 00:01:32;;;;;;;15.52;8.70;;;;;;;6.32;100.00;102718.13;7363102;19;20517;-74
2022/10/12 00:04:10;;;;;;;15.52;8.50;;;;;;;6.29;100.00;102724.06;7369999;19;20010;-73
2022/10/12 00:06:54;;;;;;;15.32;7.90;;;;;;;6.28;100.00;102717.03;7366195;19;20006;-72
2022/10/12 00:09:30;;;;;;;14.70;7.78;;;;;;;6.23;100.00;102716.81;7368310;19;20371;-72
2022/10/12 00:12:13;;;;;;;16.92;7.75;;;;;;;6.19;100.00;102720.03;7371730;19;20150;-73
2022/10/12 00:14:56;;;;;;;17.38;8.85;;;;;;;6.13;100.00;102717.03;7367829;19;20034;-73
2022/10/12 00:17:30;;;;;;;16.33;7.43;;;;;;;6.09;100.00;102712.47;7372597;19;20011;-72
2022/10/12 00:20:11;;;;;;;17.77;8.93;;;;;;;6.03;100.00;102709.47;7367283;19;20010;-73
2022/10/12 00:22:41;;;;;;;14.48;7.63;;;;;;;6.00;100.00;102708.38;7372109;19;20040;-81
2022/10/12 00:25:11;;;;;;;16.08;7.88;;;;;;;5.96;100.00;102704.69;7367193;19;20010;-80
2022/10/12 00:27:45;;;;;;;15.85;7.00;;;;;;;5.94;100.00;102719.31;7365593;19;20025;-79
2022/10/12 00:30:15;;;;;;;14.05;7.05;;;;;;;5.93;100.00;102724.44;7370119;19;20033;-79
2022/10/12 00:32:44;;;;;;;14.48;6.90;;;;;;;5.87;100.00;102712.81;7368358;19;21489;-80
2022/10/12 00:35:14;;;;;;;16.90;7.45;;;;;;;5.87;100.00;102715.41;7368470;19;20017;-79
2022/10/12 00:37:44;;;;;;;14.10;7.53;;;;;;;5.84;100.00;102716.91;7370006;19;20010;-80
2022/10/12 00:40:14;;;;;;;17.45;7.38;;;;;;;5.79;100.00;102716.63;7367207;19;20018;-80
2022/10/12 00:42:47;;;;;;;12.55;7.35;;;;;;;5.74;100.00;102712.84;7367029;19;20011;-79
2022/10/12 00:45:17;;;;;;;18.15;8.05;;;;;;;5.69;100.00;102703.84;7372868;19;20015;-79
2022/10/12 00:47:51;;;;;;;13.55;6.85;;;;;;;5.68;100.00;102716.75;7361212;19;20344;-81
2022/10/12 00:50:26;;;;;;;17.08;8.10;;;;;;;5.62;100.00;102709.47;7368977;19;20537;-78
2022/10/12 00:53:00;;;;;;;13.15;6.82;;;;;;;5.57;100.00;102709.19;7367100;19;20046;-79
2022/10/12 00:55:35;;;;;;;15.68;7.30;;;;;;;5.51;100.00;102705.28;7368391;19;20509;-79
2022/10/12 00:58:10;;;;;;;16.15;7.22;;;;;;;5.48;100.00;102706.00;7370439;19;20014;-79
2022/10/12 01:00:40;;;;;;;10.90;6.55;;;;;;;5.43;100.00;102706.50;7368634;19;20011;-79
2022/10/12 01:03:13;;;;;;;13.32;6.63;;;;;;;5.38;100.00;102708.81;7368858;19;20110;-79
2022/10/12 01:05:42;;;;;;;14.27;6.88;;;;;;;5.33;100.00;102699.81;7369906;19;20014;-79
2022/10/12 01:08:28;;;;;;;13.18;7.93;;;;;;;5.31;100.00;102700.53;7363978;19;20042;-72
2022/10/12 01:11:04;;;;;;;13.07;7.03;;;;;;;5.29;100.00;102697.81;7363912;19;20426;-72
2022/10/12 01:16:46;;;;;;;12.30;6.20;;;;;;;5.18;100.00;102701.47;7368792;19;20034;-73
2022/10/12 01:19:54;;;;;;;13.73;6.95;;;;;;;5.20;100.00;102702.47;7364739;19;20014;-73
2022/10/12 01:22:26;;;;;;;14.48;6.60;;;;;;;5.15;100.00;102698.66;7368782;19;20023;-79
2022/10/12 01:25:16;;;;;;;16.88;8.20;;;;;;;5.13;100.00;102692.47;7362615;19;20011;-72
2022/10/12 01:28:01;;;;;;;13.05;6.20;;;;;;;5.08;100.00;102688.66;7369617;19;20014;-72
2022/10/12 01:30:51;;;;;;;11.57;6.07;;;;;;;5.05;100.00;102683.25;7365159;19;20054;-72
2022/10/12 01:33:44;;;;;;;14.98;6.68;;;;;;;5.02;100.00;102681.38;7368801;19;20014;-72
2022/10/12 01:36:34;;;;;;;9.70;5.90;;;;;;;4.99;100.00;102681.16;7366752;19;20007;-79
2022/10/12 01:39:14;;;;;;;15.70;6.88;;;;;;;4.93;100.00;102686.88;7369018;19;21281;-80
2022/10/12 01:41:48;;;;;;;12.38;6.80;;;;;;;4.92;100.00;102684.16;7363297;19;20074;-80
2022/10/12 01:44:22;;;;;;;12.45;6.03;;;;;;;4.90;100.00;102686.66;7366208;19;20045;-78
2022/10/12 01:47:47;;;;;;;;;;;;;;;;;;;;;
2022/10/12 01:50:33;;;;;;;14.73;5.95;;;;;;;4.81;100.00;102674.75;7365186;19;20044;-80
2022/10/12 01:53:15;;;;;;;13.32;6.10;;;;;;;4.80;100.00;102673.88;7366604;19;20010;-79
2022/10/12 01:55:51;;;;;;;13.70;6.00;;;;;;;4.80;100.00;102662.56;7369751;19;20014;-80
2022/10/12 01:58:50;;;;;;;12.13;6.40;;;;;;;4.81;100.00;102664.38;7367467;19;20014;-79
2022/10/12 02:01:29;;;;;;;11.88;6.25;;;;;;;4.79;100.00;102660.75;7365581;19;20013;-78
2022/10/12 02:04:05;;;;;;;11.88;6.38;;;;;;;4.76;100.00;102666.66;7369037;19;20116;-79
2022/10/12 02:06:42;;;;;;;9.93;6.10;;;;;;;4.73;100.00;102670.75;7358667;19;20021;-79
2022/10/12 02:09:18;;;;;;;15.63;6.32;;;;;;;4.70;100.00;102663.66;7371646;19;20017;-79
2022/10/12 02:11:52;;;;;;;9.52;6.05;;;;;;;4.67;100.00;102654.75;7368305;19;20046;-79
2022/10/12 02:14:25;;;;;;;12.18;6.18;;;;;;;4.66;100.00;102660.75;7367526;19;20047;-79
2022/10/12 02:17:01;;;;;;;13.10;6.72;;;;;;;4.67;100.00;102655.66;7370644;19;20011;-79
2022/10/12 02:19:37;;;;;;;14.25;6.70;;;;;;;4.64;100.00;102657.16;7370091;19;20027;-79
2022/10/12 02:22:11;;;;;;;10.18;5.88;;;;;;;4.59;100.00;102654.25;7365434;19;20103;-79
2022/10/12 02:24:45;;;;;;;13.88;6.78;;;;;;;4.55;100.00;102655.75;7365119;19;20015;-79
2022/10/12 02:27:17;;;;;;;11.13;5.90;;;;;;;4.51;100.00;102652.84;7361256;19;20708;-79
2022/10/12 02:29:49;;;;;;;11.77;6.05;;;;;;;4.51;100.00;102642.44;7370564;19;20021;-81
2022/10/12 02:32:23;;;;;;;16.08;6.85;;;;;;;4.48;100.00;102640.56;7370389;19;20007;-81
2022/10/12 02:38:29;;;;;;;12.27;6.07;;;;;;;4.44;100.00;102640.25;7365681;19;20031;-74
2022/10/12 02:41:38;;;;;;;13.13;6.32;;;;;;;4.40;100.00;102640.84;7364131;19;20007;-72
2022/10/12 02:45:22;;;;;;;11.98;6.45;;;;;;;4.40;100.00;102630.44;7354063;19;20002;-74
2022/10/12 02:51:22;;;;;;;11.55;7.13;;;;;;;4.32;100.00;102627.34;7362680;19;20113;-75
2022/10/12 02:55:18;;;;;;;12.15;7.00;;;;;;;4.33;100.00;102626.53;7360244;19;20749;-72
2022/10/12 02:58:04;;;;;;;12.07;6.47;;;;;;;4.32;100.00;102616.03;7367040;19;21920;-74
2022/10/12 03:00:35;;;;;;;16.23;8.98;;;;;;;4.35;100.00;102624.03;7354223;19;20019;-79
2022/10/12 03:03:05;;;;;;;13.35;6.47;;;;;;;4.33;100.00;102626.53;7363706;19;20014;-81
2022/10/12 03:05:35;;;;;;;14.23;7.10;;;;;;;4.34;100.00;102623.16;7359030;19;20023;-81
2022/10/12 03:08:04;;;;;;;16.25;7.78;;;;;;;4.32;100.00;102613.44;7365673;19;20011;-82
2022/10/12 03:10:37;;;;;;;17.52;7.43;;;;;;;4.38;100.00;102612.16;7365352;19;20007;-79
2022/10/12 03:13:07;;;;;;;14.02;7.28;;;;;;;4.38;100.00;102622.56;7367004;19;20022;-79
2022/10/12 03:15:37;;;;;;;18.58;9.55;;;;;;;4.37;100.00;102627.66;7366037;19;20013;-79
2022/10/12 03:18:07;;;;;;;15.68;7.60;;;;;;;4.38;100.00;102624.25;7365642;19;20050;-79
2022/10/12 03:20:37;;;;;;;16.20;8.38;;;;;;;4.38;100.00;102627.75;7363185;19;20011;-79
2022/10/12 03:44:19;;;;;;;14.45;8.27;;;;;;;4.49;100.00;102615.47;7362896;19;20038;-72
2022/10/12 03:47:40;;;;;;;17.23;7.45;;;;;;;4.49;100.00;102615.47;7371251;19;20133;-71
2022/10/12 03:51:30;;;;;;;12.50;7.38;;;;;;;4.44;100.00;102619.47;7362981;19;20017;-72
2022/10/12 03:55:12;;;;;;;;;;;;;;;;;;;;;
2022/10/12 04:02:06;;;;;;;15.40;8.60;;;;;;;4.39;100.00;102621.75;7363991;19;20019;-72
2022/10/12 04:05:16;;;;;;;14.10;7.40;;;;;;;4.39;100.00;102618.25;7364945;19;20020;-72
2022/10/12 04:15:21;;;;;;;12.63;6.85;;;;;;;4.32;100.00;102616.03;7372900;19;20018;-73
2022/10/12 04:22:48;;;;;;;;;;;;;;;;;;;;;
2022/10/12 04:29:52;;;;;;;14.27;7.38;;;;;;;4.22;100.00;102611.94;7371526;19;20103;-72
2022/10/12 04:32:59;;;;;;;;;;;;;;;;;;;;;
2022/10/12 04:42:54;;;;;;;14.10;8.20;;;;;;;4.20;100.00;102604.03;7358701;19;20011;-79
2022/10/12 04:46:17;;;;;;;14.70;8.15;;;;;;;4.21;100.00;102599.75;7363949;19;20010;-73
2022/10/12 04:48:47;;;;;;;22.02;8.77;;;;;;;4.25;100.00;102602.66;7365718;19;20033;-81
2022/10/12 04:54:38;;;;;;;19.90;8.63;;;;;;;4.33;100.00;102589.28;7361669;19;20080;-79
2022/10/12 05:00:08;;;;;;;20.92;10.43;;;;;;;4.47;100.00;102588.50;7360816;19;20477;-80
2022/10/12 05:02:45;;;;;;;18.08;9.63;;;;;;;4.47;100.00;102591.09;7364295;19;20011;-72
2022/10/12 05:05:14;;;;;;;21.33;10.48;;;;;;;4.53;100.00;102587.19;7372177;19;20017;-79
2022/10/12 05:10:50;;;;;;;18.85;10.50;;;;;;;4.61;100.00;102579.91;7373552;19;21128;-79
2022/10/12 05:13:21;;;;;;;19.02;10.52;;;;;;;4.62;100.00;102575.59;7367253;19;20328;-81
2022/10/12 05:15:53;;;;;;;20.40;10.02;;;;;;;4.63;100.00;102575.69;7367998;19;20034;-82
2022/10/12 05:18:23;;;;;;;17.52;9.77;;;;;;;4.63;100.00;102585.19;7364870;19;20018;-79
2022/10/12 05:20:52;;;;;;;17.98;11.02;;;;;;;4.64;100.00;102577.50;7368696;19;20010;-79
2022/10/12 05:23:25;;;;;;;22.67;10.20;;;;;;;4.62;100.00;102579.09;7370453;19;20026;-79
2022/10/12 05:25:56;;;;;;;18.73;10.32;;;;;;;4.62;100.00;102583.38;7368557;19;20014;-80
2022/10/12 05:28:26;;;;;;;25.30;10.98;;;;;;;4.59;100.00;102584.09;7369115;19;20017;-80
2022/10/12 05:30:58;;;;;;;21.50;10.48;;;;;;;4.57;100.00;102593.50;7370229;19;20077;-80
2022/10/12 05:33:28;;;;;;;20.75;11.05;;;;;;;4.53;100.00;102588.88;7373347;19;20006;-80
2022/10/12 05:39:14;;;;;;;20.75;10.50;;;;;;;4.42;100.00;102592.47;7368038;19;20030;-80
2022/10/12 05:41:44;;;;;;;13.90;9.13;;;;;;;4.38;100.00;102590.47;7365106;19;20017;-81
2022/10/12 05:44:13;;;;;;;15.02;9.07;;;;;;;4.34;100.00;102591.06;7363859;19;20097;-80
2022/10/12 05:46:46;;;;;;;17.55;8.88;;;;;;;4.33;100.00;102591.88;7364550;19;20033;-79
2022/10/12 05:49:15;;;;;;;14.20;8.93;;;;;;;4.30;100.00;102583.88;7364876;19;20642;-77
2022/10/12 05:51:45;;;;;;;18.05;10.38;;;;;;;4.27;100.00;102584.56;7360755;19;20103;-77
2022/10/12 05:54:14;;;;;;;18.17;9.68;;;;;;;4.27;100.00;102585.47;7360207;19;20412;-75
2022/10/12 05:56:44;;;;;;;17.63;10.10;;;;;;;4.26;100.00;102586.28;7358110;19;20030;-76
2022/10/12 05:59:14;;;;;;;17.08;10.10;;;;;;;4.25;100.00;102586.16;7356135;19;20010;-77
2022/10/12 06:01:46;;;;;;;17.48;10.65;;;;;;;4.22;100.00;102585.97;7359570;19;20015;-77
2022/10/12 06:04:16;;;;;;;22.90;10.80;;;;;;;4.21;100.00;102584.16;7361883;19;20018;-77
2022/10/12 06:06:46;;;;;;;22.88;10.68;;;;;;;4.19;100.00;102586.66;7369360;19;20014;-72
2022/10/12 06:09:15;;;;;;;17.90;9.77;;;;;;;4.16;100.00;102585.59;7368622;19;20494;-72
2022/10/12 06:11:45;;;;;;;18.55;10.18;;;;;;;4.17;100.00;102584.75;7368571;19;20015;-71
2022/10/12 06:14:15;;;;;;;19.27;11.18;;;;;;;4.20;100.00;102579.78;7369830;19;20014;-71
2022/10/12 06:16:47;;;;;;;19.85;11.18;;;;;;;4.20;100.00;102582.38;7370087;19;20039;-76
2022/10/12 06:19:22;;;;;;;19.08;10.77;;;;;;;4.21;100.00;102577.28;7360329;19;20010;-75
2022/10/12 06:21:52;;;;;;;17.58;10.57;;;;;;;4.19;100.00;102585.75;7365577;19;20011;-76
2022/10/12 06:24:22;;;;;;;19.95;12.52;;;;;;;4.21;100.00;102574.69;7367102;19;20009;-76
2022/10/12 06:26:51;;;;;;;18.30;9.48;;;;;;;4.22;100.00;102576.47;7365106;19;20011;-75
2022/10/12 06:29:22;;;;;;;17.55;9.82;;;;;;;4.27;100.00;102580.28;7362870;19;20014;-76
2022/10/12 06:31:54;;;;;;;17.95;10.00;;;;;;;4.33;100.00;102576.28;7358955;19;20522;-75
2022/10/12 06:34:24;;;;;;;19.83;11.63;;;;;;;4.38;100.00;102574.91;7363137;19;20048;-75
2022/10/12 06:36:54;;;;;;;18.48;10.75;;;;;;;4.40;100.00;102570.69;7365321;19;20094;-76
2022/10/12 06:39:30;;;;;;;17.77;10.98;;;;;;;4.43;100.00;102568.31;7363657;19;20022;-76
2022/10/12 06:42:06;;;;;;;19.27;10.23;;;;;;;4.48;100.00;102567.81;7363810;19;20013;-76
2022/10/12 06:44:36;;;;;;;;;;;;;;;4.59;100.00;102568.50;7361278;19;20049;-75
2022/10/12 06:47:08;;;;;;;20.40;9.45;;;;;;;4.66;100.00;102562.91;7370387;19;19918;-75
2022/10/12 06:49:38;;;;;;;21.67;10.93;;;;;;;4.71;100.00;102566.69;7371918;19;20022;-76
2022/10/12 06:52:08;;;;;;;26.13;11.18;;;;;;;4.78;100.00;102566.28;7357821;19;20014;-75
2022/10/12 06:54:37;;;;;;;23.63;11.88;;;;;;;4.90;100.00;102567.06;7363438;19;20015;-75
2022/10/12 06:57:07;;;;;;;21.92;11.60;;;;;;;4.96;100.00;102570.88;7363277;19;20021;-71
2022/10/12 06:59:37;;;;;;;20.77;11.65;;;;;;;5.01;100.00;102572.94;7362556;19;20043;-71
2022/10/12 07:02:11;;;;;;;20.27;11.25;;;;;;;5.05;100.00;102577.53;7365412;19;20006;-76
2022/10/12 07:04:40;;;;;;;;;;;;;;;5.13;100.00;102571.13;7362881;19;20010;-76
2022/10/12 07:07:10;;;;;;;19.33;10.65;;;;;;;5.19;100.00;102570.59;7360900;19;19915;-75
2022/10/12 07:09:40;;;;;;;24.13;12.32;;;;;;;5.35;100.00;102568.13;7355358;19;20022;-71
2022/10/12 07:12:09;;;;;;;22.15;11.45;;;;;;;5.39;100.00;102570.09;7368633;19;20015;-71
2022/10/12 07:14:39;;;;;;;19.83;11.57;;;;;;;5.46;100.00;102566.19;7369572;19;20015;-71
2022/10/12 07:17:11;;;;;;;19.42;11.82;;;;;;;5.49;100.00;102564.66;7374911;19;20015;-72
2022/10/12 07:19:41;;;;;;;23.17;11.98;;;;;;;5.52;100.00;102566.56;7375068;19;20010;-72
2022/10/12 07:22:10;;;;;;;22.08;12.57;;;;;;;5.56;100.00;102573.75;7372575;19;20642;-72
2022/10/12 07:24:40;;;;;;;21.98;12.05;;;;;;;5.56;100.00;102566.84;7372010;19;20359;-72
2022/10/12 07:27:12;;;;;;;18.95;11.65;;;;;;;5.56;100.00;102564.22;7371362;19;20049;-72
2022/10/12 07:29:41;;;;;;;21.88;12.05;;;;;;;5.60;100.00;102570.53;7372542;19;20014;-72
2022/10/12 07:32:14;;;;;;;22.45;12.48;;;;;;;5.65;100.00;102570.81;7365124;19;20019;-76
2022/10/12 07:34:43;;;;;;;25.63;13.60;;;;;;;5.69;100.00;102564.97;7373024;19;20021;-75
2022/10/12 07:37:14;;;;;;;21.25;12.25;;;;;;;5.77;100.00;102569.84;7372773;19;20021;-75
2022/10/12 07:39:43;;;;;;;21.63;13.52;;;;;;;5.84;100.00;102566.78;7370354;19;20010;-76
2022/10/12 07:42:13;;;;;;;22.77;13.73;;;;;;;5.92;100.00;102564.69;7367524;19;20010;-75
2022/10/12 07:44:47;;;;;;;24.80;15.68;;;;;;;6.07;100.00;102560.38;7365195;19;20049;-75
2022/10/12 07:47:20;;;;;;;31.50;15.13;;;;;;;6.19;100.00;102561.09;7371202;19;20026;-75
2022/10/12 07:49:49;;;;;;;28.70;15.57;;;;;;;6.36;100.00;102555.94;7366112;19;20478;-75
2022/10/12 07:52:19;;;;;;;27.77;14.85;;;;;;;6.45;100.00;102564.28;7356021;19;20051;-75
2022/10/12 07:54:48;;;;;;;34.83;17.92;;;;;;;6.64;100.00;102559.31;7365006;19;20041;-75
2022/10/12 07:57:18;;;;;;;28.75;16.58;;;;;;;6.79;100.00;102562.78;7366377;19;20010;-76
2022/10/12 07:59:48;;;;;;;31.73;16.63;;;;;;;6.97;100.00;102560.28;7368416;19;20482;-75
2022/10/12 08:02:20;;;;;;;30.73;17.02;;;;;;;7.17;100.00;102561.38;7369047;19;20011;-75
2022/10/12 08:04:50;;;;;;;30.23;17.50;;;;;;;7.33;100.00;102574.41;7369261;19;20007;-75
2022/10/12 08:07:20;;;;;;;30.65;17.77;;;;;;;7.57;100.00;102574.81;7372221;19;20074;-76
2022/10/12 08:09:50;;;;;;;29.80;16.80;;;;;;;7.77;100.00;102581.09;7371608;19;20368;-75
2022/10/12 08:12:19;;;;;;;34.50;17.92;;;;;;;8.00;100.00;102584.91;7366411;19;20018;-74
2022/10/12 08:14:49;;;;;;;42.78;19.10;;;;;;;8.16;100.00;102580.53;7365370;19;20047;-75
2022/10/12 08:17:21;;;;;;;31.00;17.38;;;;;;;8.37;100.00;102572.88;7369051;19;20006;-76
2022/10/12 08:19:51;;;;;;;33.85;17.13;;;;;;;8.50;100.00;102577.91;7369050;19;20010;-76
2022/10/12 08:22:20;;;;;;;31.80;17.02;;;;;;;8.66;100.00;102565.56;7365744;19;20003;-75
2022/10/12 08:24:50;;;;;;;38.40;17.45;;;;;;;8.81;100.00;102564.59;7366185;19;20044;-71
2022/10/12 08:27:19;;;;;;;38.53;15.80;;;;;;;8.83;100.00;102556.81;7368852;19;20054;-71
2022/10/12 08:29:49;;;;;;;25.63;14.40;;;;;;;8.93;100.00;102566.00;7358611;19;20021;-72
2022/10/12 08:32:22;;;;;;;29.50;15.10;;;;;;;9.15;100.00;102563.56;7369846;19;20483;-72
2022/10/12 08:34:52;;;;;;;25.95;14.10;;;;;;;9.23;100.00;102571.78;7370926;19;20010;-72
2022/10/12 08:37:21;;;;;;;28.80;14.02;;;;;;;9.41;100.00;102573.47;7370654;19;20017;-72
2022/10/12 08:39:51;;;;;;;26.65;13.45;;;;;;;9.59;100.00;102577.75;7371454;19;20011;-71
2022/10/12 08:42:34;;;;;;;21.17;12.45;;;;;;;9.87;100.00;102572.00;7364620;19;20686;-71
2022/10/12 08:45:24;;;;;;;22.77;13.10;;;;;;;10.10;100.00;102572.19;7368281;19;20593;-71
2022/10/12 08:48:09;;;;;;;23.27;13.60;;;;;;;10.33;100.00;102577.53;7370369;19;20018;-71
2022/10/12 08:50:45;;;;;;;29.92;13.02;;;;;;;10.47;100.00;102565.84;7362924;19;20019;-71
2022/10/12 08:53:21;;;;;;;30.27;13.05;;;;;;;10.57;100.00;102549.66;7368068;19;20113;-72
2022/10/12 08:55:51;;;;;;;22.02;12.15;;;;;;;10.61;100.00;102546.31;7371954;19;20006;-71
2022/10/12 08:58:23;;;;;;;21.17;11.35;;;;;;;10.56;100.00;102540.00;7365662;19;20114;-71
2022/10/12 09:00:57;;;;;;;23.67;12.52;;;;;;;10.54;100.00;102539.03;7365512;19;20494;-71
2022/10/12 09:03:44;;;;;;;22.90;12.27;;;;;;;10.52;100.00;102542.44;7366088;19;20418;-73
2022/10/12 09:06:20;;;;;;;21.55;12.02;;;;;;;10.80;100.00;102553.19;7356538;19;20010;-76
2022/10/12 09:09:04;;;;;;;25.05;11.20;;;;;;;11.02;100.00;102547.06;7360703;19;20658;-75
2022/10/12 09:11:47;;;;;;;24.38;12.90;;;;;;;11.18;100.00;102552.06;7369773;19;20011;-73
2022/10/12 09:14:22;;;;;;;25.10;12.07;;;;;;;11.54;100.00;102556.88;7367136;19;20010;-75
2022/10/12 09:16:53;;;;;;;22.27;11.93;;;;;;;11.73;100.00;102562.84;7371842;19;20010;-73
2022/10/12 09:19:31;;;;;;;22.95;12.20;;;;;;;11.93;100.00;102563.59;7369065;19;20006;-73
2022/10/12 09:22:04;;;;;;;18.42;11.25;;;;;;;12.03;100.00;102564.81;7369500;19;20018;-73
2022/10/12 09:24:38;;;;;;;20.38;11.00;;;;;;;12.23;100.00;102574.28;7368400;19;20033;-73
2022/10/12 09:27:16;;;;;;;17.25;10.82;;;;;;;12.32;100.00;102574.59;7371500;19;20017;-73
2022/10/12 09:29:48;;;;;;;18.05;10.10;;;;;;;12.49;100.00;102571.59;7363011;19;20010;-73
2022/10/12 09:32:35;;;;;;;19.80;7.95;;;;;;;12.57;100.00;102575.38;7365572;19;20011;-71
2022/10/12 09:35:09;;;;;;;16.45;7.07;;;;;;;12.61;100.00;102569.34;7366502;19;20018;-73
2022/10/12 09:37:39;;;;;;;13.65;6.32;;;;;;;12.70;100.00;102560.03;7368404;19;20115;-73
2022/10/12 09:40:20;;;;;;;17.88;6.95;;;;;;;12.65;100.00;102564.25;7368865;19;20010;-71
2022/10/12 09:42:50;;;;;;;21.48;8.55;;;;;;;12.65;100.00;102560.72;7369648;19;20014;-72
2022/10/12 09:45:24;;;;;;;15.82;7.90;;;;;;;12.90;100.00;102549.22;7366121;19;20021;-71
2022/10/12 09:48:20;;;;;;;19.10;8.88;;;;;;;13.08;100.00;102549.78;7365683;19;20021;-71
2022/10/12 09:50:56;;;;;;;26.63;10.18;;;;;;;13.05;100.00;102542.69;7368689;19;20315;-71
2022/10/12 09:53:31;;;;;;;15.02;8.50;;;;;;;13.37;100.00;102543.66;7363886;19;20225;-72
2022/10/12 09:56:08;;;;;;;19.60;9.70;;;;;;;13.49;100.00;102537.84;7370189;19;20360;-71
2022/10/12 09:58:51;;;;;;;21.17;9.13;;;;;;;13.49;100.00;102532.59;7370061;19;20161;-71
2022/10/12 10:01:24;;;;;;;18.90;8.45;;;;;;;13.46;100.00;102516.69;7367379;19;20283;-74
2022/10/12 10:04:10;;;;;;;22.70;8.70;;;;;;;13.54;100.00;102519.50;7369474;19;20082;-76
2022/10/12 10:06:45;;;;;;;19.88;8.77;;;;;;;13.75;100.00;102514.81;7368457;19;20011;-75
2022/10/12 10:09:31;;;;;;;15.27;7.57;;;;;;;13.88;100.00;102498.47;7366023;19;20018;-74
2022/10/12 10:12:24;;;;;;;18.20;7.53;;;;;;;13.97;100.00;102484.63;7361227;19;20010;-74
2022/10/12 10:14:57;;;;;;;16.13;7.95;;;;;;;14.03;100.00;102479.50;7370373;19;20014;-73
2022/10/12 10:17:30;;;;;;;19.17;8.18;;;;;;;13.92;100.00;102476.59;7370223;19;20097;-73
2022/10/12 10:20:04;;;;;;;20.20;8.40;;;;;;;13.94;100.00;102464.34;7370152;19;20073;-73
2022/10/12 10:22:37;;;;;;;16.27;7.65;;;;;;;14.00;100.00;102464.50;7372801;19;20325;-73
2022/10/12 10:25:14;;;;;;;18.08;9.32;;;;;;;13.77;100.00;102460.38;7370516;19;20029;-73
2022/10/12 10:27:44;;;;;;;17.17;8.32;;;;;;;13.75;100.00;102454.16;7363347;19;20015;-75
2022/10/12 10:30:25;;;;;;;18.30;7.55;;;;;;;13.81;100.00;102450.78;7366661;19;20018;-76
2022/10/12 10:33:19;;;;;;;19.00;7.75;;;;;;;13.91;100.00;102443.16;7370178;19;20006;-73
2022/10/12 10:36:15;;;;;;;15.03;6.57;;;;;;;13.76;100.00;102453.31;7370686;19;20022;-72
2022/10/12 10:38:57;;;;;;;22.58;6.63;;;;;;;13.91;100.00;102437.88;7362015;19;20070;-72
2022/10/12 10:41:30;;;;;;;14.48;5.97;;;;;;;13.92;100.00;102439.66;7367092;19;20007;-74
2022/10/12 10:44:02;;;;;;;14.13;6.28;;;;;;;14.16;100.00;102439.38;7367176;19;20018;-75
2022/10/12 10:46:38;;;;;;;17.00;8.25;;;;;;;14.07;100.00;102444.44;7364010;19;20017;-76
2022/10/12 10:49:10;;;;;;;16.13;7.10;;;;;;;14.20;100.00;102445.63;7371141;19;20043;-74
2022/10/12 10:51:48;;;;;;;16.17;7.15;;;;;;;14.30;100.00;102444.97;7372678;19;20010;-75
2022/10/12 10:54:30;;;;;;;17.40;8.05;;;;;;;14.25;100.00;102454.53;7367039;19;20010;-75
2022/10/12 10:57:04;;;;;;;18.80;7.90;;;;;;;14.47;100.00;102450.69;7371728;19;20014;-71
2022/10/12 10:59:42;;;;;;;18.40;7.07;;;;;;;14.40;100.00;102445.22;7371859;19;20014;-71
2022/10/12 11:02:22;;;;;;;16.02;7.85;;;;;;;14.28;100.00;102444.03;7363537;19;20014;-73
2022/10/12 11:04:57;;;;;;;15.48;8.55;;;;;;;14.28;100.00;102441.41;7361277;19;20010;-72
2022/10/12 11:07:39;;;;;;;20.88;8.55;;;;;;;14.41;100.00;102432.91;7367024;19;20002;-72
2022/10/12 11:10:22;;;;;;;20.05;8.82;;;;;;;14.43;100.00;102433.00;7367841;19;20498;-74
2022/10/12 11:12:55;;;;;;;19.23;7.97;;;;;;;14.48;100.00;102437.50;7366901;19;20021;-75
2022/10/12 11:15:32;;;;;;;22.40;9.43;;;;;;;14.34;100.00;102428.34;7368951;19;20011;-75
2022/10/12 11:18:10;;;;;;;21.90;9.50;;;;;;;14.39;100.00;102432.00;7372023;19;20011;-75
2022/10/12 11:20:50;;;;;;;20.38;9.45;;;;;;;14.37;100.00;102436.34;7368875;19;20727;-74
2022/10/12 11:23:31;;;;;;;19.13;9.60;;;;;;;14.16;100.00;102439.38;7366335;19;20010;-72
2022/10/12 11:26:15;;;;;;;19.50;9.70;;;;;;;14.18;100.00;102435.03;7362282;19;20078;-72
2022/10/12 11:28:52;;;;;;;23.40;9.77;;;;;;;14.43;100.00;102433.88;7364768;19;20017;-72
2022/10/12 11:31:44;;;;;;;;;;;;;;;;;;;;;
2022/10/12 11:34:30;;;;;;;24.38;10.57;;;;;;;14.56;100.00;102427.13;7365552;19;20014;-72
2022/10/12 11:37:04;;;;;;;21.83;9.95;;;;;;;14.47;100.00;102435.72;7368780;19;20014;-72
2022/10/12 11:39:53;;;;;;;18.33;9.63;;;;;;;14.47;100.00;102422.53;7365579;19;20072;-72
2022/10/12 11:42:34;;;;;;;20.13;9.98;;;;;;;14.76;100.00;102403.75;7366690;19;20357;-75
2022/10/12 11:45:20;;;;;;;21.38;10.27;;;;;;;14.90;100.00;102404.94;7359884;19;20015;-72
2022/10/12 11:47:57;;;;;;;20.10;10.13;;;;;;;15.06;100.00;102401.75;7364845;19;20010;-71
2022/10/12 11:50:39;;;;;;;17.35;8.38;;;;;;;15.12;100.00;102401.88;7363759;19;20249;-71
2022/10/12 11:53:19;;;;;;;23.23;8.55;;;;;;;15.02;100.00;102394.63;7359757;19;20010;-72
2022/10/12 11:56:11;;;;;;;14.75;8.05;;;;;;;15.08;100.00;102393.84;7364961;19;20010;-72
2022/10/12 11:58:49;;;;;;;18.42;9.55;;;;;;;14.89;100.00;102393.47;7373433;19;20051;-71
2022/10/12 12:01:55;;;;;;;18.88;8.15;;;;;;;15.01;100.00;102403.41;7373725;19;20027;-71
2022/10/12 12:04:31;;;;;;;18.27;9.00;;;;;;;15.05;100.00;102397.31;7371081;19;20011;-75
2022/10/12 12:07:52;;;;;;;17.73;8.02;;;;;;;14.85;100.00;102391.63;7368237;19;20018;-76
2022/10/12 12:11:04;;;;;;;22.33;7.75;;;;;;;14.94;100.00;102396.22;7368123;19;20011;-76
2022/10/12 12:13:34;;;;;;;17.33;7.10;;;;;;;14.98;100.00;102393.66;7376561;19;20451;-75
2022/10/12 12:16:34;;;;;;;20.67;6.28;;;;;;;14.76;100.00;102404.66;7377882;19;20003;-75
2022/10/12 12:19:17;;;;;;;16.02;6.53;;;;;;;14.67;100.00;102401.81;7376991;19;20015;-76
2022/10/12 12:22:28;;;;;;;15.40;5.22;;;;;;;14.85;100.00;102396.91;7372784;19;20034;-75
2022/10/12 12:25:07;;;;;;;20.02;6.97;;;;;;;14.72;100.00;102401.06;7363425;19;20374;-76
2022/10/12 12:27:40;;;;;;;14.52;6.63;;;;;;;14.53;100.00;102406.84;7370689;19;20009;-76
2022/10/12 12:30:34;;;;;;;18.25;6.53;;;;;;;14.47;100.00;102393.50;7371269;19;20351;-76
2022/10/12 12:33:30;;;;;;;17.23;6.40;;;;;;;14.36;100.00;102402.88;7368809;19;20173;-76
2022/10/12 12:36:02;;;;;;;17.83;6.93;;;;;;;14.44;100.00;102398.72;7369741;19;20013;-75
2022/10/12 12:38:35;;;;;;;17.42;6.88;;;;;;;14.39;100.00;102410.88;7365806;19;20015;-77
2022/10/12 12:41:18;;;;;;;13.07;6.82;;;;;;;14.51;100.00;102395.34;7370843;19;20452;-72
2022/10/12 12:43:56;;;;;;;15.75;6.82;;;;;;;14.29;100.00;102403.59;7368678;19;20015;-74
2022/10/12 12:47:09;;;;;;;22.73;8.02;;;;;;;14.40;100.00;102388.91;7365249;19;20010;-75
2022/10/12 12:50:36;;;;;;;17.48;7.95;;;;;;;14.62;100.00;102385.88;7369852;19;20011;-72
2022/10/12 12:53:10;;;;;;;18.70;6.72;;;;;;;14.56;100.00;102372.53;7368577;19;20011;-75
2022/10/12 12:56:00;;;;;;;17.27;7.45;;;;;;;14.60;100.00;102371.75;7368116;19;20395;-75
2022/10/12 12:58:53;;;;;;;17.75;7.82;;;;;;;14.66;100.00;102371.88;7369046;19;20362;-74
2022/10/12 13:01:53;;;;;;;15.77;6.85;;;;;;;14.87;100.00;102374.06;7371051;19;20067;-76
2022/10/12 13:04:48;;;;;;;19.02;7.25;;;;;;;15.12;100.00;102364.88;7366775;19;20141;-72
2022/10/12 13:07:47;;;;;;;21.48;7.70;;;;;;;14.94;100.00;102361.88;7367331;19;20015;-72
2022/10/12 13:10:31;;;;;;;17.60;8.20;;;;;;;15.19;100.00;102360.59;7371524;19;20013;-75
2022/10/12 13:13:13;;;;;;;;;;;;;;;15.26;100.00;102357.19;7368334;19;20022;-75
2022/10/12 13:16:04;;;;;;;21.88;8.20;;;;;;;15.54;100.00;102353.28;7372563;19;19918;-75
2022/10/12 13:18:59;;;;;;;19.20;7.45;;;;;;;15.54;100.00;102363.88;7373253;19;20014;-74
2022/10/12 13:21:34;;;;;;;22.20;7.88;;;;;;;15.47;100.00;102370.78;7368474;19;20501;-72
2022/10/12 13:24:17;;;;;;;17.00;7.32;;;;;;;15.58;100.00;102368.38;7374133;19;20105;-72